createdAt,value
2017-08-04T00:00:03.695Z,0
2017-08-04T00:01:03.672Z,0
2017-08-04T00:02:03.665Z,0
2017-08-04T00:03:03.641Z,0
2017-08-04T00:04:03.620Z,0
2017-08-04T00:05:03.299Z,0
2017-08-04T00:06:03.588Z,0
2017-08-04T00:07:03.575Z,0
2017-08-04T00:08:03.540Z,0
2017-08-04T00:09:03.520Z,0
2017-08-04T00:10:03.493Z,0
2017-08-04T00:11:03.480Z,0
2017-08-04T00:12:02.868Z,0
2017-08-04T00:13:03.447Z,0
2017-08-04T00:14:03.122Z,0
2017-08-04T00:15:03.104Z,0
2017-08-04T00:16:03.083Z,0
2017-08-04T00:17:03.061Z,0
2017-08-04T00:18:03.347Z,0
2017-08-04T00:19:03.323Z,0
2017-08-04T00:20:03.300Z,0
2017-08-04T00:21:03.285Z,0
2017-08-04T00:22:02.666Z,0
2017-08-04T00:23:02.655Z,0
2017-08-04T00:24:03.223Z,0
2017-08-04T00:25:02.617Z,0
2017-08-04T00:26:03.193Z,0
2017-08-04T00:27:03.171Z,0
2017-08-04T00:28:03.145Z,0
2017-08-04T00:29:03.135Z,0
2017-08-04T00:30:02.810Z,0
2017-08-04T00:31:03.088Z,0
2017-08-04T00:32:03.067Z,0
2017-08-04T00:33:02.750Z,0
2017-08-04T00:34:03.027Z,0
2017-08-04T00:35:02.724Z,0
2017-08-04T00:36:03.005Z,0
2017-08-04T00:37:02.672Z,0
2017-08-04T00:38:02.368Z,0
2017-08-04T00:39:02.943Z,0
2017-08-04T00:40:02.625Z,0
2017-08-04T00:41:02.896Z,0
2017-08-04T00:42:02.586Z,0
2017-08-04T00:43:02.856Z,0
2017-08-04T00:44:02.247Z,0
2017-08-04T00:45:02.839Z,0
2017-08-04T00:46:02.498Z,0
2017-08-04T00:47:02.473Z,0
2017-08-04T00:48:02.456Z,0
2017-08-04T00:49:02.448Z,0
2017-08-04T00:50:02.418Z,0
2017-08-04T00:51:02.698Z,0
2017-08-04T00:52:02.693Z,0
2017-08-04T00:53:02.657Z,0
2017-08-04T00:54:02.651Z,0
2017-08-04T00:55:02.618Z,0
2017-08-04T00:56:02.618Z,0
2017-08-04T00:57:02.280Z,0
2017-08-04T00:58:02.270Z,0
2017-08-04T00:59:02.245Z,0
2017-08-04T01:00:02.524Z,0
2017-08-04T01:01:02.501Z,0
2017-08-04T01:02:02.483Z,0
2017-08-04T01:03:02.460Z,0
2017-08-04T01:04:02.445Z,0
2017-08-04T01:05:02.430Z,0
2017-08-04T01:06:02.105Z,0
2017-08-04T01:07:02.394Z,0
2017-08-04T01:08:02.363Z,0
2017-08-04T01:09:02.063Z,0
2017-08-04T01:10:02.327Z,0
2017-08-04T01:11:02.009Z,0
2017-08-04T01:12:02.289Z,0
2017-08-04T01:13:02.264Z,0
2017-08-04T01:14:02.240Z,0
2017-08-04T01:15:02.224Z,0
2017-08-04T01:16:02.198Z,0
2017-08-04T01:17:02.183Z,0
2017-08-04T01:18:02.162Z,0
2017-08-04T01:19:02.143Z,0
2017-08-04T01:20:02.124Z,0
2017-08-04T01:21:02.105Z,0
2017-08-04T01:22:02.090Z,0
2017-08-04T01:23:01.472Z,0
2017-08-04T01:24:01.748Z,0
2017-08-04T01:25:02.028Z,0
2017-08-04T01:26:02.008Z,0
2017-08-04T01:27:02.000Z,0
2017-08-04T01:28:01.968Z,0
2017-08-04T01:29:01.650Z,0
2017-08-04T01:30:01.932Z,0
2017-08-04T01:31:01.612Z,0
2017-08-04T01:32:01.588Z,0
2017-08-04T01:33:01.870Z,0
2017-08-04T01:34:01.564Z,0
2017-08-04T01:35:01.533Z,0
2017-08-04T01:36:01.509Z,0
2017-08-04T01:37:01.493Z,0
2017-08-04T01:38:01.482Z,0
2017-08-04T01:39:01.453Z,0
2017-08-04T01:40:01.741Z,0
2017-08-04T01:41:01.708Z,0
2017-08-04T01:42:01.689Z,0
2017-08-04T01:43:01.663Z,0
2017-08-04T01:44:01.653Z,0
2017-08-04T01:45:01.642Z,0
2017-08-04T01:46:01.603Z,0
2017-08-04T01:47:01.590Z,0
2017-08-04T01:48:01.562Z,0
2017-08-04T01:49:01.258Z,0
2017-08-04T01:50:01.229Z,0
2017-08-04T01:51:01.512Z,0
2017-08-04T01:52:01.488Z,0
2017-08-04T01:53:01.472Z,0
2017-08-04T01:54:01.443Z,0
2017-08-04T01:55:01.433Z,0
2017-08-04T01:56:01.407Z,0
2017-08-04T01:57:01.385Z,0
2017-08-04T01:58:01.364Z,0
2017-08-04T01:59:01.045Z,0
2017-08-04T02:00:01.322Z,0
2017-08-04T02:01:01.014Z,0
2017-08-04T02:02:00.987Z,0
2017-08-04T02:03:01.268Z,0
2017-08-04T02:04:01.246Z,0
2017-08-04T02:05:00.627Z,0
2017-08-04T02:06:01.200Z,0
2017-08-04T02:07:01.191Z,0
2017-08-04T02:08:01.161Z,0
2017-08-04T02:09:00.549Z,0
2017-08-04T02:10:01.121Z,0
2017-08-04T02:11:01.103Z,0
2017-08-04T02:12:01.080Z,0
2017-08-04T02:13:00.766Z,0
2017-08-04T02:14:01.038Z,0
2017-08-04T02:15:00.881Z,0
2017-08-04T02:16:00.702Z,0
2017-08-04T02:17:00.730Z,0
2017-08-04T02:18:00.969Z,0
2017-08-04T02:19:00.644Z,0
2017-08-04T02:20:00.626Z,0
2017-08-04T02:21:00.601Z,0
2017-08-04T02:22:00.289Z,0
2017-08-04T02:23:00.861Z,0
2017-08-04T02:24:00.839Z,0
2017-08-04T02:25:00.821Z,0
2017-08-04T02:26:00.510Z,0
2017-08-04T02:27:00.775Z,0
2017-08-04T02:28:00.758Z,0
2017-08-04T02:29:00.742Z,0
2017-08-04T02:30:00.428Z,0
2017-08-04T02:31:00.402Z,0
2017-08-04T02:32:00.687Z,0
2017-08-04T02:33:00.368Z,0
2017-08-04T02:34:00.649Z,0
2017-08-04T02:35:00.621Z,0
2017-08-04T02:36:00.606Z,0
2017-08-04T02:37:00.586Z,0
2017-08-04T02:38:00.580Z,0
2017-08-04T02:39:00.536Z,0
2017-08-04T02:40:00.521Z,0
2017-08-04T02:41:00.505Z,0
2017-08-04T02:42:00.185Z,0
2017-08-04T02:43:00.470Z,0
2017-08-04T02:44:00.444Z,0
2017-08-04T02:45:00.122Z,0
2017-08-04T02:46:00.444Z,0
2017-08-04T02:47:00.375Z,0
2017-08-04T02:48:00.361Z,0
2017-08-04T02:49:00.355Z,0
2017-08-04T02:50:00.322Z,0
2017-08-04T02:51:00.306Z,0
2017-08-04T02:52:00.306Z,0
2017-08-04T02:53:00.268Z,0
2017-08-04T02:54:00.239Z,0
2017-08-04T02:54:59.925Z,0
2017-08-04T02:56:00.211Z,0
2017-08-04T02:56:59.882Z,0
2017-08-04T02:58:00.169Z,0
2017-08-04T02:58:59.841Z,0
2017-08-04T03:00:00.121Z,0
2017-08-04T03:01:00.107Z,0
2017-08-04T03:02:00.079Z,0
2017-08-04T03:02:59.763Z,0
2017-08-04T03:03:59.735Z,0
2017-08-04T03:05:00.021Z,0
2017-08-04T03:05:59.999Z,0
2017-08-04T03:06:59.983Z,0
2017-08-04T03:07:59.958Z,0
2017-08-04T03:08:59.947Z,0
2017-08-04T03:09:59.626Z,0
2017-08-04T03:10:59.407Z,0
2017-08-04T03:11:59.581Z,0
2017-08-04T03:12:59.861Z,0
2017-08-04T03:13:59.546Z,0
2017-08-04T03:14:59.831Z,0
2017-08-04T03:15:59.801Z,0
2017-08-04T03:16:59.485Z,0
2017-08-04T03:17:59.761Z,0
2017-08-04T03:18:59.441Z,0
2017-08-04T03:19:59.727Z,0
2017-08-04T03:20:59.710Z,0
2017-08-04T03:21:59.679Z,0
2017-08-04T03:22:59.661Z,0
2017-08-04T03:23:59.646Z,0
2017-08-04T03:24:59.622Z,0
2017-08-04T03:25:59.858Z,0
2017-08-04T03:26:59.585Z,0
2017-08-04T03:27:59.565Z,0
2017-08-04T03:28:59.547Z,0
2017-08-04T03:29:59.531Z,0
2017-08-04T03:30:59.514Z,0
2017-08-04T03:31:59.477Z,0
2017-08-04T03:32:59.462Z,0
2017-08-04T03:33:59.448Z,0
2017-08-04T03:34:59.419Z,0
2017-08-04T03:35:59.106Z,0
2017-08-04T03:36:59.086Z,0
2017-08-04T03:37:59.070Z,0
2017-08-04T03:38:59.044Z,0
2017-08-04T03:39:59.326Z,0
2017-08-04T03:40:59.308Z,0
2017-08-04T03:41:59.288Z,0
2017-08-04T03:42:59.262Z,0
2017-08-04T03:43:59.238Z,0
2017-08-04T03:44:59.224Z,0
2017-08-04T03:45:59.205Z,0
2017-08-04T03:46:59.183Z,0
2017-08-04T03:47:59.169Z,0
2017-08-04T03:48:58.852Z,0
2017-08-04T03:49:59.123Z,0
2017-08-04T03:50:59.111Z,0
2017-08-04T03:51:58.793Z,0
2017-08-04T03:52:59.070Z,5
2017-08-04T03:53:58.760Z,5
2017-08-04T03:54:59.028Z,5
2017-08-04T03:55:58.717Z,5
2017-08-04T03:56:59.001Z,5
2017-08-04T03:57:58.965Z,5
2017-08-04T03:58:58.951Z,5
2017-08-04T03:59:58.935Z,5
2017-08-04T04:00:58.615Z,5
2017-08-04T04:01:58.942Z,5
2017-08-04T04:02:58.866Z,10
2017-08-04T04:03:58.555Z,10
2017-08-04T04:04:58.833Z,10
2017-08-04T04:05:58.813Z,10
2017-08-04T04:06:58.790Z,15
2017-08-04T04:07:58.819Z,15
2017-08-04T04:08:58.451Z,15
2017-08-04T04:09:58.461Z,15
2017-08-04T04:10:58.410Z,10
2017-08-04T04:11:58.689Z,10
2017-08-04T04:12:58.672Z,10
2017-08-04T04:13:58.357Z,15
2017-08-04T04:14:58.348Z,10
2017-08-04T04:15:58.616Z,15
2017-08-04T04:16:58.599Z,20
2017-08-04T04:17:58.571Z,20
2017-08-04T04:18:58.553Z,25
2017-08-04T04:19:58.533Z,30
2017-08-04T04:20:58.518Z,30
2017-08-04T04:21:58.208Z,30
2017-08-04T04:22:58.189Z,30
2017-08-04T04:23:58.450Z,30
2017-08-04T04:24:58.436Z,30
2017-08-04T04:25:58.436Z,35
2017-08-04T04:26:58.399Z,40
2017-08-04T04:27:58.372Z,45
2017-08-04T04:28:58.351Z,45
2017-08-04T04:29:58.338Z,45
2017-08-04T04:30:58.024Z,45
2017-08-04T04:31:57.714Z,45
2017-08-04T04:32:58.280Z,45
2017-08-04T04:33:58.256Z,40
2017-08-04T04:34:57.936Z,45
2017-08-04T04:35:58.226Z,45
2017-08-04T04:36:58.196Z,50
2017-08-04T04:37:58.181Z,55
2017-08-04T04:38:58.181Z,60
2017-08-04T04:39:57.545Z,65
2017-08-04T04:40:58.120Z,65
2017-08-04T04:41:57.817Z,65
2017-08-04T04:42:58.109Z,70
2017-08-04T04:43:57.771Z,70
2017-08-04T04:44:58.053Z,70
2017-08-04T04:45:57.723Z,65
2017-08-04T04:46:58.004Z,70
2017-08-04T04:47:57.684Z,75
2017-08-04T04:48:57.666Z,75
2017-08-04T04:49:57.648Z,80
2017-08-04T04:50:57.927Z,85
2017-08-04T04:51:57.911Z,90
2017-08-04T04:52:57.895Z,90
2017-08-04T04:53:57.866Z,90
2017-08-04T04:54:57.843Z,75
2017-08-04T04:55:57.832Z,70
2017-08-04T04:56:57.511Z,70
2017-08-04T04:57:57.786Z,70
2017-08-04T04:58:57.772Z,85
2017-08-04T04:59:57.451Z,100
2017-08-04T05:00:57.430Z,110
2017-08-04T05:01:57.703Z,110
2017-08-04T05:02:57.691Z,100
2017-08-04T05:03:57.673Z,85
2017-08-04T05:04:57.651Z,85
2017-08-04T05:05:57.352Z,95
2017-08-04T05:06:57.616Z,115
2017-08-04T05:07:57.592Z,130
2017-08-04T05:08:57.573Z,140
2017-08-04T05:09:57.260Z,150
2017-08-04T05:10:57.531Z,150
2017-08-04T05:11:57.510Z,125
2017-08-04T05:12:57.508Z,110
2017-08-04T05:13:57.480Z,110
2017-08-04T05:14:57.457Z,120
2017-08-04T05:15:56.845Z,115
2017-08-04T05:16:57.127Z,105
2017-08-04T05:17:57.402Z,110
2017-08-04T05:18:57.381Z,110
2017-08-04T05:19:57.362Z,105
2017-08-04T05:20:57.343Z,105
2017-08-04T05:21:57.326Z,105
2017-08-04T05:22:57.307Z,105
2017-08-04T05:23:57.332Z,115
2017-08-04T05:24:57.272Z,135
2017-08-04T05:25:57.249Z,155
2017-08-04T05:26:56.940Z,170
2017-08-04T05:27:57.209Z,185
2017-08-04T05:28:57.187Z,195
2017-08-04T05:29:57.648Z,195
2017-08-04T05:30:56.741Z,190
2017-08-04T05:31:57.484Z,180
2017-08-04T05:32:59.000Z,155
2017-08-04T05:33:58.932Z,135
2017-08-04T05:34:58.301Z,125
2017-08-04T05:35:57.251Z,145
2017-08-04T05:36:57.067Z,170
2017-08-04T05:37:56.779Z,165
2017-08-04T05:38:56.710Z,140
2017-08-04T05:39:56.992Z,130
2017-08-04T05:40:56.664Z,130
2017-08-04T05:41:56.936Z,135
2017-08-04T05:42:56.941Z,155
2017-08-04T05:43:56.909Z,170
2017-08-04T05:44:56.705Z,170
2017-08-04T05:45:56.297Z,170
2017-08-04T05:46:56.845Z,185
2017-08-04T05:47:56.833Z,200
2017-08-04T05:48:56.217Z,235
2017-08-04T05:49:56.197Z,295
2017-08-04T05:50:56.785Z,370
2017-08-04T05:51:56.749Z,390
2017-08-04T05:52:56.149Z,395
2017-08-04T05:53:56.422Z,390
2017-08-04T05:54:56.695Z,380
2017-08-04T05:55:56.686Z,345
2017-08-04T05:56:56.664Z,350
2017-08-04T05:57:56.642Z,355
2017-08-04T05:58:56.318Z,380
2017-08-04T05:59:56.600Z,405
2017-08-04T06:00:56.585Z,410
2017-08-04T06:01:57.565Z,445
2017-08-04T06:02:56.243Z,485
2017-08-04T06:03:56.536Z,475
2017-08-04T06:04:56.214Z,455
2017-08-04T06:05:56.196Z,430
2017-08-04T06:06:56.470Z,405
2017-08-04T06:07:56.460Z,450
2017-08-04T06:08:56.146Z,375
2017-08-04T06:09:56.142Z,370
2017-08-04T06:10:56.102Z,440
2017-08-04T06:11:56.104Z,480
2017-08-04T06:12:56.417Z,520
2017-08-04T06:13:56.360Z,525
2017-08-04T06:14:56.330Z,475
2017-08-04T06:15:56.311Z,490
2017-08-04T06:16:56.291Z,450
2017-08-04T06:17:55.977Z,400
2017-08-04T06:18:56.264Z,390
2017-08-04T06:19:56.239Z,410
2017-08-04T06:20:56.229Z,385
2017-08-04T06:21:55.906Z,435
2017-08-04T06:22:56.200Z,485
2017-08-04T06:23:56.172Z,475
2017-08-04T06:24:56.243Z,465
2017-08-04T06:25:56.162Z,470
2017-08-04T06:26:55.850Z,525
2017-08-04T06:27:56.102Z,590
2017-08-04T06:28:55.590Z,575
2017-08-04T06:29:56.069Z,530
2017-08-04T06:30:56.045Z,505
2017-08-04T06:31:56.037Z,475
2017-08-04T06:32:56.023Z,435
2017-08-04T06:33:55.712Z,450
2017-08-04T06:34:55.983Z,495
2017-08-04T06:35:55.666Z,520
2017-08-04T06:36:55.998Z,540
2017-08-04T06:37:55.650Z,550
2017-08-04T06:38:55.919Z,565
2017-08-04T06:39:55.950Z,555
2017-08-04T06:40:55.707Z,565
2017-08-04T06:41:55.705Z,585
2017-08-04T06:42:55.627Z,580
2017-08-04T06:43:55.830Z,615
2017-08-04T06:44:55.825Z,615
2017-08-04T06:45:55.525Z,590
2017-08-04T06:46:55.955Z,640
2017-08-04T06:47:55.773Z,650
2017-08-04T06:48:55.453Z,615
2017-08-04T06:49:55.728Z,685
2017-08-04T06:50:55.716Z,655
2017-08-04T06:51:55.707Z,705
2017-08-04T06:52:55.383Z,735
2017-08-04T06:53:55.678Z,700
2017-08-04T06:54:55.645Z,725
2017-08-04T06:55:55.335Z,745
2017-08-04T06:56:55.610Z,805
2017-08-04T06:57:55.602Z,895
2017-08-04T06:58:55.581Z,985
2017-08-04T06:59:55.565Z,760
2017-08-04T07:00:54.955Z,760
2017-08-04T07:01:55.244Z,695
2017-08-04T07:02:55.251Z,680
2017-08-04T07:03:55.506Z,700
2017-08-04T07:04:54.896Z,690
2017-08-04T07:05:55.173Z,720
2017-08-04T07:06:54.862Z,805
2017-08-04T07:07:55.438Z,1510
2017-08-04T07:08:55.130Z,905
2017-08-04T07:09:54.815Z,895
2017-08-04T07:10:55.143Z,1220
2017-08-04T07:11:55.463Z,860
2017-08-04T07:12:55.369Z,860
2017-08-04T07:13:55.059Z,920
2017-08-04T07:14:55.034Z,935
2017-08-04T07:15:55.315Z,950
2017-08-04T07:16:55.006Z,1045
2017-08-04T07:17:54.986Z,940
2017-08-04T07:18:55.291Z,925
2017-08-04T07:19:55.255Z,1080
2017-08-04T07:20:55.597Z,1375
2017-08-04T07:21:55.858Z,970
2017-08-04T07:22:55.865Z,865
2017-08-04T07:23:55.456Z,745
2017-08-04T07:24:55.179Z,795
2017-08-04T07:25:55.163Z,790
2017-08-04T07:26:55.158Z,720
2017-08-04T07:27:55.128Z,615
2017-08-04T07:28:55.113Z,615
2017-08-04T07:29:55.106Z,675
2017-08-04T07:30:55.376Z,660
2017-08-04T07:31:55.069Z,650
2017-08-04T07:32:55.061Z,740
2017-08-04T07:33:55.043Z,750
2017-08-04T07:34:54.732Z,695
2017-08-04T07:35:55.020Z,660
2017-08-04T07:36:54.997Z,640
2017-08-04T07:37:54.687Z,645
2017-08-04T07:38:54.677Z,650
2017-08-04T07:39:54.953Z,780
2017-08-04T07:40:54.937Z,845
2017-08-04T07:41:54.926Z,855
2017-08-04T07:42:55.842Z,850
2017-08-04T07:43:55.633Z,835
2017-08-04T07:44:54.879Z,860
2017-08-04T07:45:54.869Z,890
2017-08-04T07:46:54.849Z,880
2017-08-04T07:47:54.238Z,845
2017-08-04T07:48:54.552Z,890
2017-08-04T07:49:54.809Z,950
2017-08-04T07:50:56.092Z,955
2017-08-04T07:51:54.773Z,1000
2017-08-04T07:52:54.753Z,1010
2017-08-04T07:53:54.783Z,980
2017-08-04T07:54:54.728Z,935
2017-08-04T07:55:54.720Z,925
2017-08-04T07:56:54.703Z,945
2017-08-04T07:57:54.692Z,985
2017-08-04T07:58:54.668Z,990
2017-08-04T07:59:54.365Z,960
2017-08-04T08:00:54.501Z,995
2017-08-04T08:01:54.766Z,1035
2017-08-04T08:02:54.623Z,1055
2017-08-04T08:03:54.811Z,1085
2017-08-04T08:04:54.656Z,1100
2017-08-04T08:05:54.771Z,1070
2017-08-04T08:06:54.476Z,1070
2017-08-04T08:07:54.800Z,1085
2017-08-04T08:08:54.071Z,1050
2017-08-04T08:09:54.524Z,1000
2017-08-04T08:10:54.505Z,975
2017-08-04T08:11:54.490Z,895
2017-08-04T08:12:54.497Z,875
2017-08-04T08:13:54.448Z,945
2017-08-04T08:14:54.463Z,1080
2017-08-04T08:15:54.429Z,1245
2017-08-04T08:16:54.413Z,1505
2017-08-04T08:17:54.405Z,1045
2017-08-04T08:18:54.383Z,1040
2017-08-04T08:19:54.367Z,1160
2017-08-04T08:20:54.067Z,1220
2017-08-04T08:21:54.343Z,1090
2017-08-04T08:22:54.031Z,1090
2017-08-04T08:23:54.024Z,1195
2017-08-04T08:24:54.004Z,1190
2017-08-04T08:25:53.988Z,1425
2017-08-04T08:26:53.985Z,1260
2017-08-04T08:27:54.256Z,2740
2017-08-04T08:28:54.243Z,1240
2017-08-04T08:29:53.935Z,1095
2017-08-04T08:30:53.947Z,1045
2017-08-04T08:31:53.912Z,1070
2017-08-04T08:32:54.194Z,1130
2017-08-04T08:33:54.171Z,1570
2017-08-04T08:34:53.869Z,1260
2017-08-04T08:35:54.145Z,1475
2017-08-04T08:36:53.562Z,1510
2017-08-04T08:37:53.825Z,1430
2017-08-04T08:38:53.834Z,1100
2017-08-04T08:39:53.802Z,1220
2017-08-04T08:40:54.083Z,1165
2017-08-04T08:41:53.772Z,1410
2017-08-04T08:42:54.057Z,2340
2017-08-04T08:43:54.048Z,1560
2017-08-04T08:44:54.027Z,1980
2017-08-04T08:45:54.017Z,1375
2017-08-04T08:46:54.008Z,1415
2017-08-04T08:47:53.698Z,1405
2017-08-04T08:48:54.007Z,1355
2017-08-04T08:49:53.979Z,1325
2017-08-04T08:50:53.659Z,1200
2017-08-04T08:51:53.956Z,1115
2017-08-04T08:52:53.947Z,1225
2017-08-04T08:53:53.922Z,1385
2017-08-04T08:54:53.910Z,1355
2017-08-04T08:55:53.899Z,1315
2017-08-04T08:56:53.595Z,1265
2017-08-04T08:57:54.121Z,1285
2017-08-04T08:58:55.020Z,1375
2017-08-04T08:59:53.813Z,1545
2017-08-04T09:00:53.535Z,1360
2017-08-04T09:01:53.536Z,1345
2017-08-04T09:02:53.814Z,1200
2017-08-04T09:03:53.805Z,980
2017-08-04T09:04:53.785Z,1085
2017-08-04T09:05:53.779Z,1250
2017-08-04T09:06:53.773Z,1215
2017-08-04T09:07:53.750Z,1300
2017-08-04T09:08:53.734Z,1620
2017-08-04T09:09:53.722Z,1495
2017-08-04T09:10:54.119Z,1340
2017-08-04T09:11:53.106Z,1300
2017-08-04T09:12:53.679Z,1305
2017-08-04T09:13:53.576Z,1270
2017-08-04T09:14:53.293Z,1300
2017-08-04T09:15:53.649Z,1430
2017-08-04T09:16:53.635Z,1610
2017-08-04T09:17:53.629Z,1140
2017-08-04T09:18:53.609Z,1290
2017-08-04T09:19:53.306Z,1365
2017-08-04T09:20:53.289Z,1355
2017-08-04T09:21:53.574Z,1480
2017-08-04T09:22:53.560Z,1495
2017-08-04T09:23:53.547Z,1230
2017-08-04T09:24:53.540Z,1470
2017-08-04T09:25:53.230Z,1475
2017-08-04T09:26:54.561Z,1500
2017-08-04T09:27:53.331Z,1220
2017-08-04T09:28:53.501Z,2910
2017-08-04T09:29:53.479Z,1975
2017-08-04T09:30:53.170Z,1265
2017-08-04T09:31:53.463Z,880
2017-08-04T09:32:53.166Z,835
2017-08-04T09:33:53.135Z,875
2017-08-04T09:34:53.121Z,890
2017-08-04T09:35:53.108Z,755
2017-08-04T09:36:53.391Z,795
2017-08-04T09:37:53.377Z,1700
2017-08-04T09:38:53.708Z,1135
2017-08-04T09:39:53.646Z,1195
2017-08-04T09:40:53.342Z,1060
2017-08-04T09:41:53.326Z,1235
2017-08-04T09:42:53.319Z,1615
2017-08-04T09:43:53.310Z,1545
2017-08-04T09:44:53.286Z,1560
2017-08-04T09:45:53.277Z,1690
2017-08-04T09:46:53.316Z,1625
2017-08-04T09:47:52.953Z,1610
2017-08-04T09:48:52.646Z,1555
2017-08-04T09:49:52.931Z,1575
2017-08-04T09:50:53.211Z,1635
2017-08-04T09:51:53.207Z,1495
2017-08-04T09:52:53.189Z,1425
2017-08-04T09:53:53.171Z,1360
2017-08-04T09:54:53.164Z,1310
2017-08-04T09:55:53.152Z,1250
2017-08-04T09:56:53.138Z,1170
2017-08-04T09:57:53.125Z,1145
2017-08-04T09:58:53.109Z,1125
2017-08-04T09:59:53.098Z,1150
2017-08-04T10:00:52.987Z,1235
2017-08-04T10:01:53.084Z,1310
2017-08-04T10:02:53.061Z,1325
2017-08-04T10:03:53.051Z,1260
2017-08-04T10:04:53.038Z,1245
2017-08-04T10:05:52.732Z,1235
2017-08-04T10:06:53.016Z,1195
2017-08-04T10:07:52.709Z,1215
2017-08-04T10:08:53.047Z,1290
2017-08-04T10:09:51.797Z,1325
2017-08-04T10:10:53.373Z,1440
2017-08-04T10:11:53.778Z,1520
2017-08-04T10:12:52.653Z,1375
2017-08-04T10:13:52.634Z,1435
2017-08-04T10:14:53.188Z,1465
2017-08-04T10:15:53.507Z,1475
2017-08-04T10:16:52.894Z,1080
2017-08-04T10:17:52.293Z,840
2017-08-04T10:18:52.891Z,920
2017-08-04T10:19:52.949Z,1075
2017-08-04T10:20:52.689Z,1125
2017-08-04T10:21:52.830Z,1100
2017-08-04T10:22:52.821Z,1140
2017-08-04T10:23:52.812Z,1190
2017-08-04T10:24:52.792Z,1195
2017-08-04T10:25:52.479Z,1160
2017-08-04T10:26:52.900Z,1160
2017-08-04T10:27:52.457Z,1155
2017-08-04T10:28:52.747Z,1165
2017-08-04T10:29:52.861Z,1220
2017-08-04T10:30:52.576Z,1230
2017-08-04T10:31:52.406Z,1225
2017-08-04T10:32:52.690Z,1245
2017-08-04T10:33:52.385Z,1255
2017-08-04T10:34:52.861Z,1230
2017-08-04T10:35:52.654Z,1215
2017-08-04T10:36:52.638Z,1270
2017-08-04T10:37:52.333Z,1300
2017-08-04T10:38:52.621Z,1310
2017-08-04T10:39:52.623Z,1280
2017-08-04T10:40:52.787Z,1315
2017-08-04T10:41:52.295Z,1350
2017-08-04T10:42:52.562Z,1410
2017-08-04T10:43:52.558Z,1460
2017-08-04T10:44:52.546Z,1460
2017-08-04T10:45:52.231Z,1405
2017-08-04T10:46:52.513Z,1365
2017-08-04T10:47:52.497Z,1380
2017-08-04T10:48:52.251Z,1405
2017-08-04T10:49:52.482Z,1435
2017-08-04T10:50:52.490Z,1355
2017-08-04T10:51:52.462Z,1280
2017-08-04T10:52:52.456Z,1350
2017-08-04T10:53:52.155Z,1440
2017-08-04T10:54:52.424Z,1465
2017-08-04T10:55:52.413Z,1430
2017-08-04T10:56:52.104Z,1350
2017-08-04T10:57:52.092Z,1335
2017-08-04T10:58:52.369Z,1430
2017-08-04T10:59:52.373Z,1485
2017-08-04T11:00:52.049Z,1435
2017-08-04T11:01:52.053Z,1480
2017-08-04T11:02:52.037Z,1510
2017-08-04T11:03:52.018Z,1360
2017-08-04T11:04:52.017Z,1190
2017-08-04T11:05:52.297Z,1015
2017-08-04T11:06:51.978Z,960
2017-08-04T11:07:51.972Z,975
2017-08-04T11:08:51.960Z,975
2017-08-04T11:09:51.945Z,1120
2017-08-04T11:10:51.932Z,1375
2017-08-04T11:11:52.218Z,1295
2017-08-04T11:12:52.201Z,1335
2017-08-04T11:13:52.186Z,1410
2017-08-04T11:14:52.186Z,1400
2017-08-04T11:15:52.167Z,1460
2017-08-04T11:16:51.856Z,1385
2017-08-04T11:17:52.144Z,1330
2017-08-04T11:18:52.129Z,1395
2017-08-04T11:19:52.125Z,1430
2017-08-04T11:20:51.811Z,1385
2017-08-04T11:21:51.809Z,1300
2017-08-04T11:22:51.784Z,1305
2017-08-04T11:23:51.773Z,1155
2017-08-04T11:24:52.060Z,1015
2017-08-04T11:25:51.751Z,1430
2017-08-04T11:26:52.042Z,935
2017-08-04T11:27:52.028Z,995
2017-08-04T11:28:52.017Z,1140
2017-08-04T11:29:51.997Z,1290
2017-08-04T11:30:51.687Z,1285
2017-08-04T11:31:51.991Z,1050
2017-08-04T11:32:51.957Z,1255
2017-08-04T11:33:51.380Z,1700
2017-08-04T11:34:51.934Z,1490
2017-08-04T11:35:51.923Z,1340
2017-08-04T11:36:51.610Z,1215
2017-08-04T11:37:51.597Z,1215
2017-08-04T11:38:51.886Z,1350
2017-08-04T11:39:51.872Z,1515
2017-08-04T11:40:51.860Z,1355
2017-08-04T11:41:51.852Z,1350
2017-08-04T11:42:51.836Z,1260
2017-08-04T11:43:51.527Z,1100
2017-08-04T11:44:51.819Z,1090
2017-08-04T11:45:51.805Z,1175
2017-08-04T11:46:51.790Z,1170
2017-08-04T11:47:51.776Z,1490
2017-08-04T11:48:51.764Z,1355
2017-08-04T11:49:51.771Z,1685
2017-08-04T11:50:51.448Z,1190
2017-08-04T11:51:51.431Z,1140
2017-08-04T11:52:51.712Z,1000
2017-08-04T11:53:51.703Z,965
2017-08-04T11:54:51.691Z,985
2017-08-04T11:55:51.391Z,940
2017-08-04T11:56:51.670Z,930
2017-08-04T11:57:51.653Z,1125
2017-08-04T11:58:51.649Z,1290
2017-08-04T11:59:51.635Z,3590
2017-08-04T12:00:51.337Z,1585
2017-08-04T12:01:51.614Z,2885
2017-08-04T12:02:51.001Z,1870
2017-08-04T12:03:51.581Z,1665
2017-08-04T12:04:51.566Z,1640
2017-08-04T12:05:51.556Z,1690
2017-08-04T12:06:51.552Z,2965
2017-08-04T12:07:51.539Z,1735
2017-08-04T12:08:50.934Z,3595
2017-08-04T12:09:51.515Z,3840
2017-08-04T12:10:51.210Z,1855
2017-08-04T12:11:51.925Z,2035
2017-08-04T12:12:51.495Z,2845
2017-08-04T12:13:50.883Z,1515
2017-08-04T12:14:51.371Z,1190
2017-08-04T12:15:51.152Z,2600
2017-08-04T12:16:50.858Z,1195
2017-08-04T12:17:51.748Z,1060
2017-08-04T12:18:51.350Z,1120
2017-08-04T12:19:51.415Z,1015
2017-08-04T12:20:50.813Z,975
2017-08-04T12:21:51.094Z,3465
2017-08-04T12:22:51.381Z,1285
2017-08-04T12:23:50.770Z,1105
2017-08-04T12:24:51.066Z,1300
2017-08-04T12:25:51.350Z,1325
2017-08-04T12:26:51.049Z,1290
2017-08-04T12:27:50.789Z,1265
2017-08-04T12:28:51.031Z,1250
2017-08-04T12:29:51.020Z,1415
2017-08-04T12:30:51.299Z,1435
2017-08-04T12:31:51.283Z,1750
2017-08-04T12:32:51.265Z,3535
2017-08-04T12:33:51.255Z,1445
2017-08-04T12:34:51.249Z,1430
2017-08-04T12:35:50.941Z,1560
2017-08-04T12:36:51.230Z,1365
2017-08-04T12:37:50.922Z,1400
2017-08-04T12:38:50.910Z,1110
2017-08-04T12:39:51.195Z,980
2017-08-04T12:40:50.881Z,800
2017-08-04T12:41:51.177Z,695
2017-08-04T12:42:51.299Z,620
2017-08-04T12:43:50.845Z,550
2017-08-04T12:44:51.143Z,510
2017-08-04T12:45:50.863Z,505
2017-08-04T12:46:51.115Z,485
2017-08-04T12:47:51.109Z,470
2017-08-04T12:48:51.096Z,475
2017-08-04T12:49:51.075Z,605
2017-08-04T12:50:51.064Z,2125
2017-08-04T12:51:51.052Z,1400
2017-08-04T12:52:51.040Z,2510
2017-08-04T12:53:51.046Z,1510
2017-08-04T12:54:51.013Z,1295
2017-08-04T12:55:51.002Z,3700
2017-08-04T12:56:51.021Z,1425
2017-08-04T12:57:51.040Z,2835
2017-08-04T12:58:50.970Z,1545
2017-08-04T12:59:50.947Z,3635
2017-08-04T13:00:50.936Z,3775
2017-08-04T13:01:50.628Z,3585
2017-08-04T13:02:50.921Z,1650
2017-08-04T13:03:50.905Z,2855
2017-08-04T13:04:50.888Z,1795
2017-08-04T13:05:50.884Z,1425
2017-08-04T13:06:50.733Z,935
2017-08-04T13:07:50.858Z,800
2017-08-04T13:08:50.852Z,805
2017-08-04T13:09:50.834Z,1780
2017-08-04T13:10:50.838Z,905
2017-08-04T13:11:50.820Z,2155
2017-08-04T13:12:50.516Z,1035
2017-08-04T13:13:50.799Z,2690
2017-08-04T13:14:50.786Z,1210
2017-08-04T13:15:50.509Z,2105
2017-08-04T13:16:50.785Z,1265
2017-08-04T13:17:50.762Z,1195
2017-08-04T13:18:50.752Z,1070
2017-08-04T13:19:50.443Z,940
2017-08-04T13:20:50.431Z,875
2017-08-04T13:21:50.718Z,775
2017-08-04T13:22:50.709Z,870
2017-08-04T13:23:52.618Z,840
2017-08-04T13:24:50.394Z,840
2017-08-04T13:25:50.389Z,780
2017-08-04T13:26:50.662Z,730
2017-08-04T13:27:50.359Z,745
2017-08-04T13:28:50.639Z,765
2017-08-04T13:29:50.332Z,865
2017-08-04T13:30:50.322Z,935
2017-08-04T13:31:50.603Z,950
2017-08-04T13:32:50.596Z,925
2017-08-04T13:33:50.576Z,895
2017-08-04T13:34:49.969Z,935
2017-08-04T13:35:50.555Z,1020
2017-08-04T13:36:50.241Z,1115
2017-08-04T13:37:50.526Z,1200
2017-08-04T13:38:50.514Z,1220
2017-08-04T13:39:50.204Z,1230
2017-08-04T13:40:50.193Z,1260
2017-08-04T13:41:49.888Z,1230
2017-08-04T13:42:50.480Z,1190
2017-08-04T13:43:50.163Z,1195
2017-08-04T13:44:50.452Z,1155
2017-08-04T13:45:50.427Z,1125
2017-08-04T13:46:50.416Z,1105
2017-08-04T13:47:50.400Z,1035
2017-08-04T13:48:50.099Z,990
2017-08-04T13:49:50.081Z,1040
2017-08-04T13:50:50.371Z,1210
2017-08-04T13:51:50.394Z,1250
2017-08-04T13:52:50.345Z,1230
2017-08-04T13:53:50.328Z,1235